sensor_id;sensor_type;location;lat;lon;timestamp;pressure;altitude;pressure_sealevel;temperature;humidity
18022;BME280;9136;48.822;7.966;2023-01-27T00:01:39;100625.31;;;-0.47;100.00
18022;BME280;9136;48.822;7.966;2023-01-27T00:04:27;100627.03;;;-0.47;100.00
18022;BME280;9136;48.822;7.966;2023-01-27T00:07:14;100660.84;;;-0.32;100.00
18022;BME280;9136;48.822;7.966;2023-01-27T00:10:04;100640.06;;;-0.40;100.00
18022;BME280;9136;48.822;7.966;2023-01-27T00:12:53;100642.72;;;-0.37;100.00
18022;BME280;9136;48.822;7.966;2023-01-27T00:15:58;100641.88;;;-0.34;100.00
18022;BME280;9136;48.822;7.966;2023-01-27T00:18:46;100622.06;;;-0.37;100.00
18022;BME280;9136;48.822;7.966;2023-01-27T00:21:34;100635.97;;;-0.28;100.00
18022;BME280;9136;48.822;7.966;2023-01-27T00:24:40;100644.63;;;-0.25;100.00
18022;BME280;9136;48.822;7.966;2023-01-27T00:27:28;100659.44;;;-0.15;100.00
18022;BME280;9136;48.822;7.966;2023-01-27T00:30:18;100634.31;;;-0.25;100.00
18022;BME280;9136;48.822;7.966;2023-01-27T00:33:07;100651.69;;;-0.16;100.00
18022;BME280;9136;48.822;7.966;2023-01-27T00:36:13;100649.16;;;-0.12;100.00
18022;BME280;9136;48.822;7.966;2023-01-27T00:39:01;100610.09;;;-0.32;100.00
18022;BME280;9136;48.822;7.966;2023-01-27T00:41:49;100638.75;;;-0.16;100.00
18022;BME280;9136;48.822;7.966;2023-01-27T00:44:37;100617.94;;;-0.25;100.00
18022;BME280;9136;48.822;7.966;2023-01-27T00:47:46;100622.19;;;-0.29;100.00
18022;BME280;9136;48.822;7.966;2023-01-27T00:50:34;100613.47;;;-0.36;100.00
18022;BME280;9136;48.822;7.966;2023-01-27T00:53:22;100649.13;;;-0.13;100.00
18022;BME280;9136;48.822;7.966;2023-01-27T00:56:10;100645.81;;;-0.08;100.00
18022;BME280;9136;48.822;7.966;2023-01-27T00:58:59;100634.63;;;-0.07;100.00
18022;BME280;9136;48.822;7.966;2023-01-27T01:01:47;100616.41;;;-0.16;100.00
18022;BME280;9136;48.822;7.966;2023-01-27T01:04:36;100625.91;;;-0.12;100.00
18022;BME280;9136;48.822;7.966;2023-01-27T01:07:24;100630.94;;;-0.19;100.00
18022;BME280;9136;48.822;7.966;2023-01-27T01:10:12;100592.84;;;-0.34;100.00
18022;BME280;9136;48.822;7.966;2023-01-27T01:13:00;100615.41;;;-0.24;100.00
18022;BME280;9136;48.822;7.966;2023-01-27T01:15:48;100614.59;;;-0.20;100.00
18022;BME280;9136;48.822;7.966;2023-01-27T01:18:36;100638.94;;;-0.07;100.00
18022;BME280;9136;48.822;7.966;2023-01-27T01:21:26;100647.44;;;-0.13;100.00
18022;BME280;9136;48.822;7.966;2023-01-27T01:24:14;100653.44;;;-0.14;100.00
18022;BME280;9136;48.822;7.966;2023-01-27T01:27:02;100616.94;;;-0.34;100.00
18022;BME280;9136;48.822;7.966;2023-01-27T01:29:50;100616.09;;;-0.33;100.00
18022;BME280;9136;48.822;7.966;2023-01-27T01:32:38;100624.00;;;-0.23;100.00
18022;BME280;9136;48.822;7.966;2023-01-27T01:35:25;100630.81;;;-0.28;100.00
18022;BME280;9136;48.822;7.966;2023-01-27T01:38:15;100610.03;;;-0.35;100.00
18022;BME280;9136;48.822;7.966;2023-01-27T01:41:04;100609.16;;;-0.37;100.00
18022;BME280;9136;48.822;7.966;2023-01-27T01:43:52;100607.53;;;-0.30;100.00
18022;BME280;9136;48.822;7.966;2023-01-27T01:46:40;100591.00;;;-0.40;100.00
18022;BME280;9136;48.822;7.966;2023-01-27T01:49:31;100601.47;;;-0.34;100.00
18022;BME280;9136;48.822;7.966;2023-01-27T01:52:21;100601.38;;;-0.38;100.00
18022;BME280;9136;48.822;7.966;2023-01-27T01:55:10;100610.19;;;-0.27;100.00
18022;BME280;9136;48.822;7.966;2023-01-27T01:58:00;100597.16;;;-0.35;100.00
18022;BME280;9136;48.822;7.966;2023-01-27T02:00:48;100593.66;;;-0.38;100.00
18022;BME280;9136;48.822;7.966;2023-01-27T02:03:37;100596.44;;;-0.24;100.00
18022;BME280;9136;48.822;7.966;2023-01-27T02:06:27;100605.19;;;-0.18;100.00
18022;BME280;9136;48.822;7.966;2023-01-27T02:09:16;100593.78;;;-0.29;100.00
18022;BME280;9136;48.822;7.966;2023-01-27T02:12:07;100578.16;;;-0.38;100.00
18022;BME280;9136;48.822;7.966;2023-01-27T02:14:55;100604.94;;;-0.32;100.00
18022;BME280;9136;48.822;7.966;2023-01-27T02:17:43;100612.81;;;-0.24;100.00
18022;BME280;9136;48.822;7.966;2023-01-27T02:20:36;100596.28;;;-0.35;100.00
18022;BME280;9136;48.822;7.966;2023-01-27T02:23:38;100578.03;;;-0.44;100.00
18022;BME280;9136;48.822;7.966;2023-01-27T02:26:34;100604.03;;;-0.34;100.00
18022;BME280;9136;48.822;7.966;2023-01-27T02:29:23;100598.06;;;-0.31;100.00
18022;BME280;9136;48.822;7.966;2023-01-27T02:32:21;100602.38;;;-0.30;100.00
18022;BME280;9136;48.822;7.966;2023-01-27T02:35:12;100607.78;;;-0.16;100.00
18022;BME280;9136;48.822;7.966;2023-01-27T02:38:03;100609.50;;;-0.17;100.00
18022;BME280;9136;48.822;7.966;2023-01-27T02:40:55;100610.38;;;-0.16;100.00
18022;BME280;9136;48.822;7.966;2023-01-27T02:43:46;100591.28;;;-0.26;100.00
18022;BME280;9136;48.822;7.966;2023-01-27T02:46:34;100591.19;;;-0.29;100.00
18022;BME280;9136;48.822;7.966;2023-01-27T02:49:22;100605.19;;;-0.18;100.00
18022;BME280;9136;48.822;7.966;2023-01-27T02:52:10;100595.59;;;-0.25;100.00
18022;BME280;9136;48.822;7.966;2023-01-27T02:54:58;100575.59;;;-0.37;100.00
18022;BME280;9136;48.822;7.966;2023-01-27T02:57:45;100600.03;;;-0.18;100.00
18022;BME280;9136;48.822;7.966;2023-01-27T03:00:35;100597.50;;;-0.13;100.00
18022;BME280;9136;48.822;7.966;2023-01-27T03:03:23;100579.13;;;-0.30;100.00
18022;BME280;9136;48.822;7.966;2023-01-27T03:06:11;100581.69;;;-0.32;100.00
18022;BME280;9136;48.822;7.966;2023-01-27T03:08:59;100593.84;;;-0.26;100.00
18022;BME280;9136;48.822;7.966;2023-01-27T03:11:47;100582.47;;;-0.37;100.00
18022;BME280;9136;48.822;7.966;2023-01-27T03:14:50;100571.22;;;-0.41;100.00
18022;BME280;9136;48.822;7.966;2023-01-27T03:18:04;100612.78;;;-0.25;100.00
18022;BME280;9136;48.822;7.966;2023-01-27T03:21:00;100584.13;;;-0.39;100.00
18022;BME280;9136;48.822;7.966;2023-01-27T03:23:48;100611.06;;;-0.25;100.00
18022;BME280;9136;48.822;7.966;2023-01-27T03:26:36;100605.94;;;-0.23;100.00
18022;BME280;9136;48.822;7.966;2023-01-27T03:29:24;100595.47;;;-0.31;100.00
18022;BME280;9136;48.822;7.966;2023-01-27T03:32:30;100605.75;;;-0.34;100.00
18022;BME280;9136;48.822;7.966;2023-01-27T03:35:20;100598.00;;;-0.36;100.00
18022;BME280;9136;48.822;7.966;2023-01-27T03:38:11;100592.81;;;-0.36;100.00
18022;BME280;9136;48.822;7.966;2023-01-27T03:41:17;100613.69;;;-0.23;100.00
18022;BME280;9136;48.822;7.966;2023-01-27T03:44:22;100595.44;;;-0.33;100.00
18022;BME280;9136;48.822;7.966;2023-01-27T03:47:27;100620.69;;;-0.16;100.00
18022;BME280;9136;48.822;7.966;2023-01-27T03:50:15;100599.91;;;-0.24;100.00
18022;BME280;9136;48.822;7.966;2023-01-27T03:53:06;100614.56;;;-0.21;100.00
18022;BME280;9136;48.822;7.966;2023-01-27T03:55:54;100594.59;;;-0.33;100.00
18022;BME280;9136;48.822;7.966;2023-01-27T03:58:42;100586.88;;;-0.30;100.00
18022;BME280;9136;48.822;7.966;2023-01-27T04:01:30;100611.13;;;-0.20;100.00
18022;BME280;9136;48.822;7.966;2023-01-27T04:04:18;100623.31;;;-0.13;100.00
18022;BME280;9136;48.822;7.966;2023-01-27T04:07:23;100632.81;;;-0.11;100.00
18022;BME280;9136;48.822;7.966;2023-01-27T04:10:13;100625.88;;;-0.15;100.00
18022;BME280;9136;48.822;7.966;2023-01-27T04:13:00;100602.44;;;-0.28;100.00
18022;BME280;9136;48.822;7.966;2023-01-27T04:15:47;100598.03;;;-0.33;100.00
18022;BME280;9136;48.822;7.966;2023-01-27T04:18:35;100629.31;;;-0.16;100.00
18022;BME280;9136;48.822;7.966;2023-01-27T04:21:24;100626.72;;;-0.16;100.00
18022;BME280;9136;48.822;7.966;2023-01-27T04:24:12;100621.53;;;-0.19;100.00
18022;BME280;9136;48.822;7.966;2023-01-27T04:27:12;100625.75;;;-0.22;100.00
18022;BME280;9136;48.822;7.966;2023-01-27T04:30:00;100610.06;;;-0.33;100.00
18022;BME280;9136;48.822;7.966;2023-01-27T04:32:50;100632.78;;;-0.14;100.00
18022;BME280;9136;48.822;7.966;2023-01-27T04:35:37;100624.16;;;-0.16;100.00
18022;BME280;9136;48.822;7.966;2023-01-27T04:38:25;100619.72;;;-0.21;100.00
18022;BME280;9136;48.822;7.966;2023-01-27T04:41:13;100622.34;;;-0.20;100.00
18022;BME280;9136;48.822;7.966;2023-01-27T04:44:03;100637.06;;;-0.16;100.00
18022;BME280;9136;48.822;7.966;2023-01-27T04:46:52;100627.47;;;-0.23;100.00
18022;BME280;9136;48.822;7.966;2023-01-27T04:49:40;100637.09;;;-0.13;100.00
18022;BME280;9136;48.822;7.966;2023-01-27T04:52:28;100627.56;;;-0.18;100.00
18022;BME280;9136;48.822;7.966;2023-01-27T04:55:15;100629.25;;;-0.19;100.00
18022;BME280;9136;48.822;7.966;2023-01-27T04:58:03;100641.31;;;-0.18;100.00
18022;BME280;9136;48.822;7.966;2023-01-27T05:00:53;100627.50;;;-0.20;100.00
18022;BME280;9136;48.822;7.966;2023-01-27T05:03:41;100627.41;;;-0.26;100.00
18022;BME280;9136;48.822;7.966;2023-01-27T05:06:29;100631.00;;;-0.18;100.00
18022;BME280;9136;48.822;7.966;2023-01-27T05:09:16;100624.84;;;-0.26;100.00
18022;BME280;9136;48.822;7.966;2023-01-27T05:12:04;100658.59;;;-0.14;100.00
18022;BME280;9136;48.822;7.966;2023-01-27T05:14:52;100623.94;;;-0.28;100.00
18022;BME280;9136;48.822;7.966;2023-01-27T05:17:42;100648.28;;;-0.14;100.00
18022;BME280;9136;48.822;7.966;2023-01-27T05:20:29;100657.03;;;-0.06;100.00
18022;BME280;9136;48.822;7.966;2023-01-27T05:23:18;100629.22;;;-0.20;100.00
18022;BME280;9136;48.822;7.966;2023-01-27T05:26:25;100648.38;;;-0.08;100.00
18022;BME280;9136;48.822;7.966;2023-01-27T05:29:13;100639.63;;;-0.17;100.00
18022;BME280;9136;48.822;7.966;2023-01-27T05:32:01;100608.31;;;-0.36;100.00
18022;BME280;9136;48.822;7.966;2023-01-27T05:34:51;100648.28;;;-0.14;100.00
18022;BME280;9136;48.822;7.966;2023-01-27T05:37:38;100629.09;;;-0.28;100.00
18022;BME280;9136;48.822;7.966;2023-01-27T05:40:26;100647.41;;;-0.14;100.00
18022;BME280;9136;48.822;7.966;2023-01-27T05:43:14;100649.84;;;-0.22;100.00
18022;BME280;9136;48.822;7.966;2023-01-27T05:46:04;100662.03;;;-0.15;100.00
18022;BME280;9136;48.822;7.966;2023-01-27T05:48:54;100668.06;;;-0.14;100.00
18022;BME280;9136;48.822;7.966;2023-01-27T05:51:44;100655.69;;;-0.32;100.00
18022;BME280;9136;48.822;7.966;2023-01-27T05:54:31;100642.03;;;-0.26;100.00
18022;BME280;9136;48.822;7.966;2023-01-27T05:57:19;100665.47;;;-0.16;100.00
18022;BME280;9136;48.822;7.966;2023-01-27T06:00:09;100665.47;;;-0.16;100.00
18022;BME280;9136;48.822;7.966;2023-01-27T06:02:57;100685.41;;;-0.07;100.00
18022;BME280;9136;48.822;7.966;2023-01-27T06:05:59;100664.59;;;-0.16;100.00
18022;BME280;9136;48.822;7.966;2023-01-27T06:08:51;100650.63;;;-0.27;100.00
18022;BME280;9136;48.822;7.966;2023-01-27T06:11:40;100669.84;;;-0.10;100.00
18022;BME280;9136;48.822;7.966;2023-01-27T06:14:28;100645.47;;;-0.27;100.00
18022;BME280;9136;48.822;7.966;2023-01-27T06:17:15;100651.56;;;-0.22;100.00
18022;BME280;9136;48.822;7.966;2023-01-27T06:20:04;100662.16;;;-0.07;100.00
18022;BME280;9136;48.822;7.966;2023-01-27T06:22:52;100667.25;;;-0.10;100.00
18022;BME280;9136;48.822;7.966;2023-01-27T06:25:44;100678.53;;;-0.07;100.00
18022;BME280;9136;48.822;7.966;2023-01-27T06:28:32;100648.94;;;-0.24;100.00
18022;BME280;9136;48.822;7.966;2023-01-27T06:31:20;100653.41;;;-0.17;100.00
18022;BME280;9136;48.822;7.966;2023-01-27T06:34:08;100650.72;;;-0.20;100.00
18022;BME280;9136;48.822;7.966;2023-01-27T06:36:56;100640.28;;;-0.27;100.00
18022;BME280;9136;48.822;7.966;2023-01-27T06:39:44;100669.81;;;-0.12;100.00
18022;BME280;9136;48.822;7.966;2023-01-27T06:42:34;100680.25;;;-0.06;100.00
18022;BME280;9136;48.822;7.966;2023-01-27T06:45:22;100668.94;;;-0.14;100.00
18022;BME280;9136;48.822;7.966;2023-01-27T06:48:10;100675.94;;;-0.07;100.00
18022;BME280;9136;48.822;7.966;2023-01-27T06:50:58;100653.22;;;-0.26;100.00
18022;BME280;9136;48.822;7.966;2023-01-27T06:53:46;100678.31;;;-0.19;100.00
18022;BME280;9136;48.822;7.966;2023-01-27T06:56:34;100690.50;;;-0.10;100.00
18022;BME280;9136;48.822;7.966;2023-01-27T06:59:24;100691.41;;;-0.08;100.00
18022;BME280;9136;48.822;7.966;2023-01-27T07:02:11;100670.44;;;-0.26;100.00
18022;BME280;9136;48.822;7.966;2023-01-27T07:04:59;100686.13;;;-0.16;100.00
18022;BME280;9136;48.822;7.966;2023-01-27T07:07:47;100701.78;;;-0.07;100.00
18022;BME280;9136;48.822;7.966;2023-01-27T07:10:35;100713.03;;;-0.02;100.00
18022;BME280;9136;48.822;7.966;2023-01-27T07:13:24;100698.38;;;-0.03;100.00
18022;BME280;9136;48.822;7.966;2023-01-27T07:16:14;100706.97;;;-0.05;100.00
18022;BME280;9136;48.822;7.966;2023-01-27T07:19:01;100676.59;;;-0.18;100.00
18022;BME280;9136;48.822;7.966;2023-01-27T07:21:49;100689.59;;;-0.14;100.00
18022;BME280;9136;48.822;7.966;2023-01-27T07:24:37;100705.22;;;-0.06;100.00
18022;BME280;9136;48.822;7.966;2023-01-27T07:27:25;100724.28;;;0.01;100.00
18022;BME280;9136;48.822;7.966;2023-01-27T07:30:13;100702.66;;;-0.05;100.00
18022;BME280;9136;48.822;7.966;2023-01-27T07:33:03;100725.31;;;0.10;100.00
18022;BME280;9136;48.822;7.966;2023-01-27T07:35:51;100705.38;;;0.02;100.00
18022;BME280;9136;48.822;7.966;2023-01-27T07:38:40;100729.72;;;0.16;100.00
18022;BME280;9136;48.822;7.966;2023-01-27T07:41:28;100718.16;;;-0.05;100.00
18022;BME280;9136;48.822;7.966;2023-01-27T07:44:16;100727.84;;;0.09;100.00
18022;BME280;9136;48.822;7.966;2023-01-27T07:47:04;100735.75;;;0.18;100.00
18022;BME280;9136;48.822;7.966;2023-01-27T07:49:54;100745.06;;;0.08;100.00
18022;BME280;9136;48.822;7.966;2023-01-27T07:52:41;100739.97;;;0.10;100.00
18022;BME280;9136;48.822;7.966;2023-01-27T07:55:31;100757.22;;;0.14;100.00
18022;BME280;9136;48.822;7.966;2023-01-27T07:58:19;100753.00;;;0.19;100.00
18022;BME280;9136;48.822;7.966;2023-01-27T08:01:08;100741.78;;;0.17;100.00
18022;BME280;9136;48.822;7.966;2023-01-27T08:03:56;100745.22;;;0.16;100.00
18022;BME280;9136;48.822;7.966;2023-01-27T08:06:45;100748.63;;;0.15;100.00
18022;BME280;9136;48.822;7.966;2023-01-27T08:09:33;100748.63;;;0.13;100.00
18022;BME280;9136;48.822;7.966;2023-01-27T08:12:21;100747.78;;;0.16;100.00
18022;BME280;9136;48.822;7.966;2023-01-27T08:15:09;100737.47;;;0.16;100.00
18022;BME280;9136;48.822;7.966;2023-01-27T08:17:58;100756.38;;;0.13;100.00
18022;BME280;9136;48.822;7.966;2023-01-27T08:20:47;100752.94;;;0.14;100.00
18022;BME280;9136;48.822;7.966;2023-01-27T08:23:36;100777.28;;;0.27;100.00
18022;BME280;9136;48.822;7.966;2023-01-27T08:26:24;100754.78;;;0.20;100.00
18022;BME280;9136;48.822;7.966;2023-01-27T08:29:11;100773.84;;;0.28;100.00
18022;BME280;9136;48.822;7.966;2023-01-27T08:32:00;100752.97;;;0.16;100.00
18022;BME280;9136;48.822;7.966;2023-01-27T08:34:48;100747.78;;;0.14;100.00
18022;BME280;9136;48.822;7.966;2023-01-27T08:37:36;100757.28;;;0.17;100.00
18022;BME280;9136;48.822;7.966;2023-01-27T08:40:25;100784.19;;;0.28;100.00
18022;BME280;9136;48.822;7.966;2023-01-27T08:43:13;100751.06;;;0.07;100.00
18022;BME280;9136;48.822;7.966;2023-01-27T08:46:04;100772.09;;;0.27;100.00
18022;BME280;9136;48.822;7.966;2023-01-27T08:48:52;100773.91;;;0.31;100.00
18022;BME280;9136;48.822;7.966;2023-01-27T08:51:40;100748.06;;;0.30;100.00
18022;BME280;9136;48.822;7.966;2023-01-27T08:54:28;100786.34;;;0.52;100.00
18022;BME280;9136;48.822;7.966;2023-01-27T08:57:18;100774.41;;;0.59;100.00
18022;BME280;9136;48.822;7.966;2023-01-27T09:00:08;100787.50;;;0.69;100.00
18022;BME280;9136;48.822;7.966;2023-01-27T09:02:57;100790.06;;;0.68;100.00
18022;BME280;9136;48.822;7.966;2023-01-27T09:05:46;100785.53;;;0.57;100.00
18022;BME280;9136;48.822;7.966;2023-01-27T09:08:34;100768.00;;;0.38;100.00
18022;BME280;9136;48.822;7.966;2023-01-27T09:11:22;100793.28;;;0.56;100.00
18022;BME280;9136;48.822;7.966;2023-01-27T09:14:11;100781.06;;;0.47;100.00
18022;BME280;9136;48.822;7.966;2023-01-27T09:16:59;100789.84;;;0.57;100.00
18022;BME280;9136;48.822;7.966;2023-01-27T09:19:47;100796.00;;;0.64;100.00
18022;BME280;9136;48.822;7.966;2023-01-27T09:22:37;100779.59;;;0.60;100.00
18022;BME280;9136;48.822;7.966;2023-01-27T09:25:26;100790.88;;;0.67;100.00
18022;BME280;9136;48.822;7.966;2023-01-27T09:28:13;100809.97;;;0.75;100.00
18022;BME280;9136;48.822;7.966;2023-01-27T09:31:04;100801.28;;;0.70;100.00
18022;BME280;9136;48.822;7.966;2023-01-27T09:33:54;100777.00;;;0.60;100.00
18022;BME280;9136;48.822;7.966;2023-01-27T09:36:45;100792.75;;;0.75;100.00
18022;BME280;9136;48.822;7.966;2023-01-27T09:39:39;100801.31;;;0.71;100.00
18022;BME280;9136;48.822;7.966;2023-01-27T09:42:51;100790.06;;;0.68;100.00
18022;BME280;9136;48.822;7.966;2023-01-27T09:45:57;100779.72;;;0.68;100.00
18022;BME280;9136;48.822;7.966;2023-01-27T09:49:09;100811.00;;;0.84;100.00
18022;BME280;9136;48.822;7.966;2023-01-27T09:52:14;100796.41;;;0.88;100.00
18022;BME280;9136;48.822;7.966;2023-01-27T09:55:11;100801.75;;;0.97;100.00
18022;BME280;9136;48.822;7.966;2023-01-27T09:58:09;100818.44;;;1.18;100.00
18022;BME280;9136;48.822;7.966;2023-01-27T10:01:10;100788.94;;;1.06;100.00
18022;BME280;9136;48.822;7.966;2023-01-27T10:04:16;100810.94;;;1.37;100.00
18022;BME280;9136;48.822;7.966;2023-01-27T10:07:21;100810.13;;;1.41;100.00
18022;BME280;9136;48.822;7.966;2023-01-27T10:10:23;100782.50;;;1.39;100.00
18022;BME280;9136;48.822;7.966;2023-01-27T10:13:24;100772.13;;;1.37;100.00
18022;BME280;9136;48.822;7.966;2023-01-27T10:16:28;100791.28;;;1.52;100.00
18022;BME280;9136;48.822;7.966;2023-01-27T10:19:35;100809.22;;;1.38;100.00
18022;BME280;9136;48.822;7.966;2023-01-27T10:22:36;100792.84;;;1.37;100.00
18022;BME280;9136;48.822;7.966;2023-01-27T10:25:33;100793.59;;;1.30;100.00
18022;BME280;9136;48.822;7.966;2023-01-27T10:28:27;100810.09;;;1.38;100.00
18022;BME280;9136;48.822;7.966;2023-01-27T10:31:22;100811.22;;;1.57;100.00
18022;BME280;9136;48.822;7.966;2023-01-27T10:34:22;100791.22;;;1.46;100.00
18022;BME280;9136;48.822;7.966;2023-01-27T10:37:24;100766.84;;;1.31;100.00
18022;BME280;9136;48.822;7.966;2023-01-27T10:40:19;100774.59;;;1.30;100.00
18022;BME280;9136;48.822;7.966;2023-01-27T10:43:16;100782.53;;;1.43;100.00
18022;BME280;9136;48.822;7.966;2023-01-27T10:46:14;100806.78;;;1.49;100.00
18022;BME280;9136;48.822;7.966;2023-01-27T10:49:14;100786.72;;;1.34;100.00
18022;BME280;9136;48.822;7.966;2023-01-27T10:52:12;100778.00;;;1.26;100.00
18022;BME280;9136;48.822;7.966;2023-01-27T10:55:12;100780.63;;;1.29;100.00
18022;BME280;9136;48.822;7.966;2023-01-27T10:58:05;100774.59;;;1.28;100.00
18022;BME280;9136;48.822;7.966;2023-01-27T11:00:58;100786.97;;;1.52;100.00
18022;BME280;9136;48.822;7.966;2023-01-27T11:03:54;100755.81;;;1.44;100.00
18022;BME280;9136;48.822;7.966;2023-01-27T11:06:44;100769.06;;;1.69;100.00
18022;BME280;9136;48.822;7.966;2023-01-27T11:09:35;100756.03;;;1.61;100.00
18022;BME280;9136;48.822;7.966;2023-01-27T11:12:29;100754.19;;;1.54;100.00
18022;BME280;9136;48.822;7.966;2023-01-27T11:15:23;100762.06;;;1.62;100.00
18022;BME280;9136;48.822;7.966;2023-01-27T11:18:18;100788.03;;;1.66;100.00
18022;BME280;9136;48.822;7.966;2023-01-27T11:21:11;100731.50;;;1.33;100.00
18022;BME280;9136;48.822;7.966;2023-01-27T11:24:13;100762.91;;;1.61;100.00
18022;BME280;9136;48.822;7.966;2023-01-27T11:27:09;100769.03;;;1.64;100.00
18022;BME280;9136;48.822;7.966;2023-01-27T11:30:02;100752.84;;;1.84;100.00
18022;BME280;9136;48.822;7.966;2023-01-27T11:32:59;100748.53;;;1.84;100.00
18022;BME280;9136;48.822;7.966;2023-01-27T11:35:51;100750.38;;;1.94;100.00
18022;BME280;9136;48.822;7.966;2023-01-27T11:38:39;100756.44;;;1.95;100.00
18022;BME280;9136;48.822;7.966;2023-01-27T11:41:27;100733.88;;;1.88;100.00
18022;BME280;9136;48.822;7.966;2023-01-27T11:44:18;100729.75;;;2.04;100.00
18022;BME280;9136;48.822;7.966;2023-01-27T11:47:14;100725.94;;;1.72;100.00
18022;BME280;9136;48.822;7.966;2023-01-27T11:50:05;100748.44;;;1.77;100.00
18022;BME280;9136;48.822;7.966;2023-01-27T11:52:58;100725.78;;;1.57;100.00
18022;BME280;9136;48.822;7.966;2023-01-27T11:55:52;100770.16;;;1.86;100.00
18022;BME280;9136;48.822;7.966;2023-01-27T11:58:48;100747.59;;;1.78;100.00
18022;BME280;9136;48.822;7.966;2023-01-27T12:01:42;100746.63;;;1.69;100.00
18022;BME280;9136;48.822;7.966;2023-01-27T12:04:42;100767.44;;;1.79;100.00
18022;BME280;9136;48.822;7.966;2023-01-27T12:07:42;100750.06;;;1.68;100.00
18022;BME280;9136;48.822;7.966;2023-01-27T12:10:33;100755.47;;;1.88;100.00
18022;BME280;9136;48.822;7.966;2023-01-27T12:13:24;100719.97;;;1.80;100.00
18022;BME280;9136;48.822;7.966;2023-01-27T12:16:12;100749.66;;;2.11;100.00
18022;BME280;9136;48.822;7.966;2023-01-27T12:19:02;100756.56;;;2.10;100.00
18022;BME280;9136;48.822;7.966;2023-01-27T12:21:57;100753.09;;;2.07;100.00
18022;BME280;9136;48.822;7.966;2023-01-27T12:24:48;100750.31;;;1.91;100.00
18022;BME280;9136;48.822;7.966;2023-01-27T12:27:42;100707.91;;;1.80;100.00
18022;BME280;9136;48.822;7.966;2023-01-27T12:30:36;100741.84;;;2.05;100.00
18022;BME280;9136;48.822;7.966;2023-01-27T12:33:28;100713.94;;;1.81;100.00
18022;BME280;9136;48.822;7.966;2023-01-27T12:36:19;100746.97;;;2.01;100.00
18022;BME280;9136;48.822;7.966;2023-01-27T12:39:25;100720.06;;;1.89;100.00
18022;BME280;9136;48.822;7.966;2023-01-27T12:42:38;100706.81;;;1.60;100.00
18022;BME280;9136;48.822;7.966;2023-01-27T12:45:28;100736.25;;;1.69;100.00
18022;BME280;9136;48.822;7.966;2023-01-27T12:48:19;100746.63;;;1.68;100.00
18022;BME280;9136;48.822;7.966;2023-01-27T12:51:13;100747.47;;;1.68;100.00
18022;BME280;9136;48.822;7.966;2023-01-27T12:54:15;100723.06;;;1.48;100.00
18022;BME280;9136;48.822;7.966;2023-01-27T12:57:12;100738.88;;;1.71;100.00
18022;BME280;9136;48.822;7.966;2023-01-27T13:00:03;100736.25;;;1.68;100.00
18022;BME280;9136;48.822;7.966;2023-01-27T13:02:52;100728.41;;;1.63;100.00
18022;BME280;9136;48.822;7.966;2023-01-27T13:05:44;100713.63;;;1.53;100.00
18022;BME280;9136;48.822;7.966;2023-01-27T13:08:32;100752.69;;;1.71;100.00
18022;BME280;9136;48.822;7.966;2023-01-27T13:11:32;100735.28;;;1.60;100.00
18022;BME280;9136;48.822;7.966;2023-01-27T13:14:20;100743.94;;;1.63;100.00
18022;BME280;9136;48.822;7.966;2023-01-27T13:17:27;100757.97;;;1.79;100.00
18022;BME280;9136;48.822;7.966;2023-01-27T13:20:18;100719.72;;;1.57;100.00
18022;BME280;9136;48.822;7.966;2023-01-27T13:23:13;100750.06;;;1.68;100.00
18022;BME280;9136;48.822;7.966;2023-01-27T13:26:09;100738.84;;;1.66;100.00
18022;BME280;9136;48.822;7.966;2023-01-27T13:29:05;100757.13;;;1.82;100.00
18022;BME280;9136;48.822;7.966;2023-01-27T13:32:02;100731.84;;;1.62;100.00
18022;BME280;9136;48.822;7.966;2023-01-27T13:34:56;100752.69;;;1.71;100.00
18022;BME280;9136;48.822;7.966;2023-01-27T13:37:51;100747.50;;;1.70;100.00
18022;BME280;9136;48.822;7.966;2023-01-27T13:40:45;100768.28;;;1.75;100.00
18022;BME280;9136;48.822;7.966;2023-01-27T13:43:37;100726.66;;;1.58;100.00
18022;BME280;9136;48.822;7.966;2023-01-27T13:46:32;100750.03;;;1.65;100.00
18022;BME280;9136;48.822;7.966;2023-01-27T13:49:30;100755.28;;;1.73;100.00
18022;BME280;9136;48.822;7.966;2023-01-27T13:52:19;100774.47;;;1.86;100.00
18022;BME280;9136;48.822;7.966;2023-01-27T13:55:10;100765.94;;;1.96;100.00
18022;BME280;9136;48.822;7.966;2023-01-27T13:58:02;100755.59;;;1.97;100.00
18022;BME280;9136;48.822;7.966;2023-01-27T14:00:57;100761.81;;;2.16;100.00
18022;BME280;9136;48.822;7.966;2023-01-27T14:04:17;100762.63;;;2.11;100.00
18022;BME280;9136;48.822;7.966;2023-01-27T14:07:18;100758.28;;;2.10;100.00
18022;BME280;9136;48.822;7.966;2023-01-27T14:10:16;100765.16;;;2.03;100.00
18022;BME280;9136;48.822;7.966;2023-01-27T14:13:19;100773.00;;;2.12;100.00
18022;BME280;9136;48.822;7.966;2023-01-27T14:16:17;100775.66;;;2.18;100.00
18022;BME280;9136;48.822;7.966;2023-01-27T14:19:19;100751.25;;;1.96;100.00
18022;BME280;9136;48.822;7.966;2023-01-27T14:22:20;100753.81;;;1.93;100.00
18022;BME280;9136;48.822;7.966;2023-01-27T14:25:21;100744.25;;;1.88;100.00
18022;BME280;9136;48.822;7.966;2023-01-27T14:28:22;100772.94;;;2.06;100.00
18022;BME280;9136;48.822;7.966;2023-01-27T14:31:17;100760.75;;;1.94;100.00
18022;BME280;9136;48.822;7.966;2023-01-27T14:34:13;100763.38;;;1.99;100.00
18022;BME280;9136;48.822;7.966;2023-01-27T14:37:17;100769.50;;;2.06;100.00
18022;BME280;9136;48.822;7.966;2023-01-27T14:40:19;100750.28;;;1.88;100.00
18022;BME280;9136;48.822;7.966;2023-01-27T14:43:18;100777.09;;;1.90;100.00
18022;BME280;9136;48.822;7.966;2023-01-27T14:46:18;100750.06;;;1.67;100.00
18022;BME280;9136;48.822;7.966;2023-01-27T14:49:18;100770.94;;;1.81;100.00
18022;BME280;9136;48.822;7.966;2023-01-27T14:52:20;100750.91;;;1.66;100.00
18022;BME280;9136;48.822;7.966;2023-01-27T14:55:24;100764.72;;;1.66;100.00
18022;BME280;9136;48.822;7.966;2023-01-27T14:58:28;100795.09;;;1.78;100.00
18022;BME280;9136;48.822;7.966;2023-01-27T15:01:26;100795.06;;;1.77;100.00
18022;BME280;9136;48.822;7.966;2023-01-27T15:04:47;100786.38;;;1.73;100.00
18022;BME280;9136;48.822;7.966;2023-01-27T15:07:43;100769.03;;;1.66;100.00